This is the latest recevied weather packets stored in our database for station/object kj4yre. If no packets are shown the sender has not sent any weather packets the latest 10 day(s).
| Time | Temp. | Humidity | Pressure | Rain* | Wind** | Luminosity | Snow |
|---|---|---|---|---|---|---|---|
| 1787677635 | 27.78° C | 45% | 1017.6 hPa | 0 mm | - | - | - |
| 1787675837 | 27.78° C | 59% | 1017.7 hPa | 0 mm | - | - | - |
| 1787674634 | 27.22° C | 54% | 1017.8 hPa | 0 mm | - | - | - |
| 1787673735 | 27.22° C | 58% | 1018 hPa | 0 mm | - | - | - |
| 1787673435 | 26.67° C | 58% | 1018 hPa | 0 mm | - | - | - |
| 1787668034 | 24.44° C | 66% | 1018.5 hPa | 0 mm | - | - | - |
| 1787662035 | 21.11° C | 79% | 1018.2 hPa | 0 mm | - | - | - |
| 1787657538 | 16.67° C | 97% | 1017.7 hPa | 0 mm | - | - | - |
| 1787655138 | 17.22° C | 92% | 1017.1 hPa | 0 mm | - | - | - |
| 1787650337 | 17.78° C | 94% | 1016.7 hPa | 0 mm | - | - | - |
| 1787645836 | 18.33° C | 95% | 1016.2 hPa | 0 mm | - | - | - |
| 1787641936 | 19.44° C | 97% | 1016.3 hPa | 0 mm | - | - | - |
| 1787639237 | 19.44° C | 95% | 1015.8 hPa | 0 mm | - | - | - |
| 1787638037 | 20° C | 94% | 1015.8 hPa | 0 mm | - | - | - |
| 1787631137 | 18.89° C | 100% | 1015.4 hPa | 0 mm | - | - | - |
| 1787629636 | 18.89° C | 99% | 1015.3 hPa | 0 mm | - | - | - |
| 1787628137 | 18.89° C | 100% | 1015.3 hPa | 0 mm | - | - | - |
| 1787620935 | 21.11° C | 94% | 1014.9 hPa | 0 mm | - | - | - |
| 1787619436 | 21.67° C | 90% | 1014.5 hPa | 0 mm | - | - | - |
| 1787617939 | 22.22° C | 87% | 1014.3 hPa | 0 mm | - | - | - |
| 1787615836 | 23.33° C | 79% | 1014 hPa | 0 mm | - | - | - |
| 1787613736 | 25° C | 69% | 1013.8 hPa | 0 mm | - | - | - |
| 1787613138 | 25.56° C | 68% | 1013.7 hPa | 0 mm | - | - | - |
| 1787612835 | 26.11° C | 66% | 1013.6 hPa | 0 mm | - | - | - |
| 1787609835 | 29.44° C | 56% | 1013.5 hPa | 0 mm | - | - | - |
* Rain latest hour (hover to see other rain measurements)
** Current wind speed in m/s (hover to see current wind gust speed)